sensor_id;sensor_type;location;lat;lon;timestamp;noise_LAeq;noise_LA_min;noise_LA_max;noise_LA01;noise_LA95
52872;Laerm;40124;52.198;9.902;2024-03-25T00:01:49;46.08;39.99;61.40;;
52872;Laerm;40124;52.198;9.902;2024-03-25T00:04:15;46.58;39.34;68.83;;
52872;Laerm;40124;52.198;9.902;2024-03-25T00:06:41;42.23;38.81;45.57;;
52872;Laerm;40124;52.198;9.902;2024-03-25T00:09:06;43.20;39.92;57.27;;
52872;Laerm;40124;52.198;9.902;2024-03-25T00:11:40;42.55;39.21;61.27;;
52872;Laerm;40124;52.198;9.902;2024-03-25T00:14:11;44.05;39.58;52.08;;
52872;Laerm;40124;52.198;9.902;2024-03-25T00:16:40;42.59;38.21;44.86;;
52872;Laerm;40124;52.198;9.902;2024-03-25T00:19:06;42.50;38.52;60.75;;
52872;Laerm;40124;52.198;9.902;2024-03-25T00:21:32;41.00;37.52;45.66;;
52872;Laerm;40124;52.198;9.902;2024-03-25T00:24:01;41.84;38.37;50.30;;
52872;Laerm;40124;52.198;9.902;2024-03-25T00:26:26;44.40;40.43;57.37;;
52872;Laerm;40124;52.198;9.902;2024-03-25T00:28:52;45.59;41.22;56.35;;
52872;Laerm;40124;52.198;9.902;2024-03-25T00:31:18;48.72;41.68;64.71;;
52872;Laerm;40124;52.198;9.902;2024-03-25T00:33:45;48.10;42.16;59.75;;
52872;Laerm;40124;52.198;9.902;2024-03-25T00:36:20;49.56;42.53;60.60;;
52872;Laerm;40124;52.198;9.902;2024-03-25T00:38:49;46.98;43.54;55.69;;
52872;Laerm;40124;52.198;9.902;2024-03-25T00:41:14;46.82;42.53;60.72;;
52872;Laerm;40124;52.198;9.902;2024-03-25T00:43:40;46.32;41.14;56.59;;
52872;Laerm;40124;52.198;9.902;2024-03-25T00:46:06;46.68;40.43;58.44;;
52872;Laerm;40124;52.198;9.902;2024-03-25T00:48:32;42.91;40.03;47.76;;
52872;Laerm;40124;52.198;9.902;2024-03-25T00:51:01;47.70;40.98;59.21;;
52872;Laerm;40124;52.198;9.902;2024-03-25T00:53:28;47.56;41.30;57.78;;
52872;Laerm;40124;52.198;9.902;2024-03-25T00:55:56;42.72;39.46;53.56;;
52872;Laerm;40124;52.198;9.902;2024-03-25T00:58:22;59.98;38.52;79.25;;
52872;Laerm;40124;52.198;9.902;2024-03-25T01:00:48;42.77;39.21;61.59;;
52872;Laerm;40124;52.198;9.902;2024-03-25T01:03:14;54.79;40.71;74.03;;
52872;Laerm;40124;52.198;9.902;2024-03-25T01:05:43;42.20;38.52;49.85;;
52872;Laerm;40124;52.198;9.902;2024-03-25T01:08:12;53.54;39.92;71.10;;
52872;Laerm;40124;52.198;9.902;2024-03-25T01:10:45;42.69;39.46;51.62;;
52872;Laerm;40124;52.198;9.902;2024-03-25T01:13:12;60.80;39.34;81.24;;
52872;Laerm;40124;52.198;9.902;2024-03-25T01:15:37;42.00;38.52;54.42;;
52872;Laerm;40124;52.198;9.902;2024-03-25T01:18:07;41.87;38.81;45.77;;
52872;Laerm;40124;52.198;9.902;2024-03-25T01:20:33;42.52;38.37;60.27;;
52872;Laerm;40124;52.198;9.902;2024-03-25T01:23:05;42.12;38.52;49.69;;
52872;Laerm;40124;52.198;9.902;2024-03-25T01:25:31;44.04;38.21;57.88;;
52872;Laerm;40124;52.198;9.902;2024-03-25T01:27:57;42.34;38.37;45.91;;
52872;Laerm;40124;52.198;9.902;2024-03-25T01:30:30;41.85;37.88;58.09;;
52872;Laerm;40124;52.198;9.902;2024-03-25T01:33:01;41.36;37.70;44.27;;
52872;Laerm;40124;52.198;9.902;2024-03-25T01:35:30;41.73;37.70;62.38;;
52872;Laerm;40124;52.198;9.902;2024-03-25T01:37:56;41.49;37.88;52.26;;
52872;Laerm;40124;52.198;9.902;2024-03-25T01:40:23;41.31;37.52;57.72;;
52872;Laerm;40124;52.198;9.902;2024-03-25T01:42:58;44.53;38.81;55.95;;
52872;Laerm;40124;52.198;9.902;2024-03-25T01:45:24;41.47;37.88;44.94;;
52872;Laerm;40124;52.198;9.902;2024-03-25T01:47:56;54.41;38.21;73.01;;
52872;Laerm;40124;52.198;9.902;2024-03-25T01:50:22;42.30;38.37;44.47;;
52872;Laerm;40124;52.198;9.902;2024-03-25T01:52:55;42.30;39.46;49.98;;
52872;Laerm;40124;52.198;9.902;2024-03-25T01:55:21;41.11;37.32;57.64;;
52872;Laerm;40124;52.198;9.902;2024-03-25T01:57:49;46.12;37.12;61.29;;
52872;Laerm;40124;52.198;9.902;2024-03-25T02:00:15;41.52;36.91;50.28;;
52872;Laerm;40124;52.198;9.902;2024-03-25T02:02:42;40.75;37.52;45.04;;
52872;Laerm;40124;52.198;9.902;2024-03-25T02:05:09;40.88;37.32;56.95;;
52872;Laerm;40124;52.198;9.902;2024-03-25T02:07:36;40.69;36.77;51.70;;
52872;Laerm;40124;52.198;9.902;2024-03-25T02:10:07;41.50;38.05;59.68;;
52872;Laerm;40124;52.198;9.902;2024-03-25T02:12:37;41.34;36.91;52.98;;
52872;Laerm;40124;52.198;9.902;2024-03-25T02:15:06;41.77;37.70;48.55;;
52872;Laerm;40124;52.198;9.902;2024-03-25T02:17:33;42.21;39.46;46.27;;
52872;Laerm;40124;52.198;9.902;2024-03-25T02:19:59;41.63;37.88;48.40;;
52872;Laerm;40124;52.198;9.902;2024-03-25T02:22:24;40.99;37.70;51.44;;
52872;Laerm;40124;52.198;9.902;2024-03-25T02:24:51;41.24;37.70;51.56;;
52872;Laerm;40124;52.198;9.902;2024-03-25T02:27:21;41.10;37.32;47.34;;
52872;Laerm;40124;52.198;9.902;2024-03-25T02:29:47;59.62;38.05;79.68;;
52872;Laerm;40124;52.198;9.902;2024-03-25T02:32:18;42.77;38.67;52.82;;
52872;Laerm;40124;52.198;9.902;2024-03-25T02:34:49;41.43;37.52;56.14;;
52872;Laerm;40124;52.198;9.902;2024-03-25T02:37:15;40.64;36.91;43.29;;
52872;Laerm;40124;52.198;9.902;2024-03-25T02:39:41;42.55;38.52;61.62;;
52872;Laerm;40124;52.198;9.902;2024-03-25T02:42:11;55.32;40.33;73.25;;
52872;Laerm;40124;52.198;9.902;2024-03-25T02:44:37;41.23;36.45;47.22;;
52872;Laerm;40124;52.198;9.902;2024-03-25T02:47:02;41.81;37.88;65.47;;
52872;Laerm;40124;52.198;9.902;2024-03-25T02:49:32;42.19;38.67;64.24;;
52872;Laerm;40124;52.198;9.902;2024-03-25T02:51:59;57.74;38.37;77.59;;
52872;Laerm;40124;52.198;9.902;2024-03-25T02:54:26;40.95;37.88;48.68;;
52872;Laerm;40124;52.198;9.902;2024-03-25T02:56:52;40.74;37.70;46.20;;
52872;Laerm;40124;52.198;9.902;2024-03-25T02:59:18;41.44;37.70;56.16;;
52872;Laerm;40124;52.198;9.902;2024-03-25T03:01:44;57.92;37.70;77.42;;
52872;Laerm;40124;52.198;9.902;2024-03-25T03:04:12;42.35;39.58;48.62;;
52872;Laerm;40124;52.198;9.902;2024-03-25T03:06:44;58.49;40.62;78.11;;
52872;Laerm;40124;52.198;9.902;2024-03-25T03:09:14;41.66;38.95;46.50;;
52872;Laerm;40124;52.198;9.902;2024-03-25T03:11:40;42.00;38.81;55.58;;
52872;Laerm;40124;52.198;9.902;2024-03-25T03:14:06;41.44;38.21;50.62;;
52872;Laerm;40124;52.198;9.902;2024-03-25T03:16:31;40.90;37.32;48.71;;
52872;Laerm;40124;52.198;9.902;2024-03-25T03:19:00;41.55;38.81;43.58;;
52872;Laerm;40124;52.198;9.902;2024-03-25T03:21:26;41.93;38.81;47.83;;
52872;Laerm;40124;52.198;9.902;2024-03-25T03:23:51;42.56;38.81;51.30;;
52872;Laerm;40124;52.198;9.902;2024-03-25T03:26:17;57.25;40.43;74.25;;
52872;Laerm;40124;52.198;9.902;2024-03-25T03:28:43;44.09;39.92;52.08;;
52872;Laerm;40124;52.198;9.902;2024-03-25T03:31:09;42.17;38.67;49.44;;
52872;Laerm;40124;52.198;9.902;2024-03-25T03:33:47;41.59;37.32;62.31;;
52872;Laerm;40124;52.198;9.902;2024-03-25T03:36:12;41.17;37.88;44.47;;
52872;Laerm;40124;52.198;9.902;2024-03-25T03:38:37;41.71;37.32;45.27;;
52872;Laerm;40124;52.198;9.902;2024-03-25T03:41:02;41.53;38.81;49.19;;
52872;Laerm;40124;52.198;9.902;2024-03-25T03:43:31;41.90;38.81;51.43;;
52872;Laerm;40124;52.198;9.902;2024-03-25T03:45:57;41.37;38.52;44.43;;
52872;Laerm;40124;52.198;9.902;2024-03-25T03:48:22;42.40;38.74;50.84;;
52872;Laerm;40124;52.198;9.902;2024-03-25T03:50:47;42.51;39.58;49.85;;
52872;Laerm;40124;52.198;9.902;2024-03-25T03:53:12;55.46;38.37;74.86;;
52872;Laerm;40124;52.198;9.902;2024-03-25T03:55:38;41.76;38.05;53.18;;
52872;Laerm;40124;52.198;9.902;2024-03-25T03:58:04;61.03;38.37;82.16;;
52872;Laerm;40124;52.198;9.902;2024-03-25T04:00:32;52.37;38.37;68.04;;
52872;Laerm;40124;52.198;9.902;2024-03-25T04:02:58;42.53;39.57;44.27;;
52872;Laerm;40124;52.198;9.902;2024-03-25T04:05:24;42.45;39.58;44.23;;
52872;Laerm;40124;52.198;9.902;2024-03-25T04:07:53;59.79;40.71;77.61;;
52872;Laerm;40124;52.198;9.902;2024-03-25T04:10:19;43.05;40.13;48.52;;
52872;Laerm;40124;52.198;9.902;2024-03-25T04:12:46;44.48;40.89;57.29;;
52872;Laerm;40124;52.198;9.902;2024-03-25T04:15:15;48.44;40.89;68.77;;
52872;Laerm;40124;52.198;9.902;2024-03-25T04:17:43;61.18;40.43;77.86;;
52872;Laerm;40124;52.198;9.902;2024-03-25T04:20:11;44.73;40.62;55.75;;
52872;Laerm;40124;52.198;9.902;2024-03-25T04:22:41;59.18;39.81;79.36;;
52872;Laerm;40124;52.198;9.902;2024-03-25T04:25:07;44.46;40.13;55.67;;
52872;Laerm;40124;52.198;9.902;2024-03-25T04:27:34;60.17;39.81;81.21;;
52872;Laerm;40124;52.198;9.902;2024-03-25T04:30:00;60.42;39.46;78.90;;
52872;Laerm;40124;52.198;9.902;2024-03-25T04:32:27;62.23;40.53;79.91;;
52872;Laerm;40124;52.198;9.902;2024-03-25T04:34:52;42.33;39.08;55.94;;
52872;Laerm;40124;52.198;9.902;2024-03-25T04:37:19;64.06;40.08;81.86;;
52872;Laerm;40124;52.198;9.902;2024-03-25T04:39:45;58.41;38.37;78.28;;
52872;Laerm;40124;52.198;9.902;2024-03-25T04:42:13;62.21;38.67;79.98;;
52872;Laerm;40124;52.198;9.902;2024-03-25T04:44:42;57.47;38.67;78.93;;
52872;Laerm;40124;52.198;9.902;2024-03-25T04:47:14;60.19;39.81;79.04;;
52872;Laerm;40124;52.198;9.902;2024-03-25T04:49:41;61.86;40.23;79.74;;
52872;Laerm;40124;52.198;9.902;2024-03-25T04:52:07;54.11;38.67;72.66;;
52872;Laerm;40124;52.198;9.902;2024-03-25T04:54:33;60.28;39.46;77.23;;
52872;Laerm;40124;52.198;9.902;2024-03-25T04:57:02;59.22;39.08;77.68;;
52872;Laerm;40124;52.198;9.902;2024-03-25T04:59:37;64.36;40.23;80.92;;
52872;Laerm;40124;52.198;9.902;2024-03-25T05:02:03;57.45;39.46;77.66;;
52872;Laerm;40124;52.198;9.902;2024-03-25T05:04:32;60.16;40.13;81.16;;
52872;Laerm;40124;52.198;9.902;2024-03-25T05:06:58;60.56;40.89;78.58;;
52872;Laerm;40124;52.198;9.902;2024-03-25T05:09:24;55.22;40.80;73.05;;
52872;Laerm;40124;52.198;9.902;2024-03-25T05:11:50;64.24;42.29;82.88;;
52872;Laerm;40124;52.198;9.902;2024-03-25T05:14:20;63.49;41.30;79.25;;
52872;Laerm;40124;52.198;9.902;2024-03-25T05:16:45;63.05;41.22;79.26;;
52872;Laerm;40124;52.198;9.902;2024-03-25T05:19:11;61.14;41.68;75.72;;
52872;Laerm;40124;52.198;9.902;2024-03-25T05:21:37;64.25;42.03;81.64;;
52872;Laerm;40124;52.198;9.902;2024-03-25T05:24:02;59.02;40.98;75.24;;
52872;Laerm;40124;52.198;9.902;2024-03-25T05:26:28;62.23;42.82;75.65;;
52872;Laerm;40124;52.198;9.902;2024-03-25T05:28:54;58.57;40.80;76.66;;
52872;Laerm;40124;52.198;9.902;2024-03-25T05:31:20;60.02;40.13;81.11;;
52872;Laerm;40124;52.198;9.902;2024-03-25T05:33:50;61.94;40.80;78.10;;
52872;Laerm;40124;52.198;9.902;2024-03-25T05:36:16;68.07;40.43;85.84;;
52872;Laerm;40124;52.198;9.902;2024-03-25T05:38:42;63.96;40.43;79.26;;
52872;Laerm;40124;52.198;9.902;2024-03-25T05:41:08;63.99;42.29;80.57;;
52872;Laerm;40124;52.198;9.902;2024-03-25T05:43:37;70.69;53.49;81.32;;
52872;Laerm;40124;52.198;9.902;2024-03-25T05:46:03;69.33;44.07;87.00;;
52872;Laerm;40124;52.198;9.902;2024-03-25T05:48:29;61.92;43.09;78.78;;
52872;Laerm;40124;52.198;9.902;2024-03-25T05:53:27;63.32;41.38;78.36;;
52872;Laerm;40124;52.198;9.902;2024-03-25T05:55:52;63.61;40.43;80.15;;
52872;Laerm;40124;52.198;9.902;2024-03-25T05:58:18;65.05;40.80;81.18;;
52872;Laerm;40124;52.198;9.902;2024-03-25T06:00:43;58.52;39.34;77.95;;
52872;Laerm;40124;52.198;9.902;2024-03-25T06:03:08;43.11;40.03;56.89;;
52872;Laerm;40124;52.198;9.902;2024-03-25T06:05:33;69.12;41.46;84.36;;
52872;Laerm;40124;52.198;9.902;2024-03-25T06:07:58;67.88;43.24;84.72;;
52872;Laerm;40124;52.198;9.902;2024-03-25T06:10:23;54.23;41.38;71.05;;
52872;Laerm;40124;52.198;9.902;2024-03-25T06:12:49;57.16;42.29;76.28;;
52872;Laerm;40124;52.198;9.902;2024-03-25T06:15:14;63.45;43.63;79.55;;
52872;Laerm;40124;52.198;9.902;2024-03-25T06:17:39;64.77;44.97;83.03;;
52872;Laerm;40124;52.198;9.902;2024-03-25T06:20:04;69.66;41.30;87.08;;
52872;Laerm;40124;52.198;9.902;2024-03-25T06:22:30;57.12;42.06;76.96;;
52872;Laerm;40124;52.198;9.902;2024-03-25T06:24:56;63.05;41.89;77.63;;
52872;Laerm;40124;52.198;9.902;2024-03-25T06:27:22;62.40;43.49;75.01;;
52872;Laerm;40124;52.198;9.902;2024-03-25T06:29:49;69.33;45.80;82.42;;
52872;Laerm;40124;52.198;9.902;2024-03-25T06:32:37;60.90;44.07;77.61;;
52872;Laerm;40124;52.198;9.902;2024-03-25T06:35:22;68.95;46.63;84.48;;
52872;Laerm;40124;52.198;9.902;2024-03-25T06:37:48;65.21;42.93;80.77;;
52872;Laerm;40124;52.198;9.902;2024-03-25T06:40:14;69.73;47.10;85.43;;
52872;Laerm;40124;52.198;9.902;2024-03-25T06:42:39;64.05;43.09;79.61;;
52872;Laerm;40124;52.198;9.902;2024-03-25T06:45:05;65.79;43.44;81.23;;
52872;Laerm;40124;52.198;9.902;2024-03-25T06:47:31;60.02;42.74;77.40;;
52872;Laerm;40124;52.198;9.902;2024-03-25T06:49:59;62.92;43.54;80.28;;
52872;Laerm;40124;52.198;9.902;2024-03-25T06:52:24;62.74;45.33;82.61;;
52872;Laerm;40124;52.198;9.902;2024-03-25T06:54:51;66.64;48.10;83.16;;
52872;Laerm;40124;52.198;9.902;2024-03-25T06:57:18;65.18;43.34;79.31;;
52872;Laerm;40124;52.198;9.902;2024-03-25T06:59:45;67.32;43.29;84.22;;
52872;Laerm;40124;52.198;9.902;2024-03-25T07:02:13;64.07;45.39;81.81;;
52872;Laerm;40124;52.198;9.902;2024-03-25T07:04:42;63.92;45.11;80.64;;
52872;Laerm;40124;52.198;9.902;2024-03-25T07:07:11;68.22;45.04;82.88;;
52872;Laerm;40124;52.198;9.902;2024-03-25T07:09:38;63.13;41.96;80.09;;
52872;Laerm;40124;52.198;9.902;2024-03-25T07:12:04;69.05;43.04;87.80;;
52872;Laerm;40124;52.198;9.902;2024-03-25T07:14:31;67.62;42.41;81.77;;
52872;Laerm;40124;52.198;9.902;2024-03-25T07:16:57;66.76;43.14;82.48;;
52872;Laerm;40124;52.198;9.902;2024-03-25T07:19:23;65.35;43.54;81.63;;
52872;Laerm;40124;52.198;9.902;2024-03-25T07:21:49;65.25;43.09;79.35;;
52872;Laerm;40124;52.198;9.902;2024-03-25T07:24:17;67.19;44.15;82.62;;
52872;Laerm;40124;52.198;9.902;2024-03-25T07:26:43;65.70;45.17;78.52;;
52872;Laerm;40124;52.198;9.902;2024-03-25T07:29:12;61.68;43.39;79.92;;
52872;Laerm;40124;52.198;9.902;2024-03-25T07:31:38;61.86;42.53;79.96;;
52872;Laerm;40124;52.198;9.902;2024-03-25T07:34:05;62.94;42.53;78.97;;
52872;Laerm;40124;52.198;9.902;2024-03-25T07:36:31;66.09;42.29;81.79;;
52872;Laerm;40124;52.198;9.902;2024-03-25T07:39:00;62.88;41.22;79.43;;
52872;Laerm;40124;52.198;9.902;2024-03-25T07:41:27;62.10;42.09;79.44;;
52872;Laerm;40124;52.198;9.902;2024-03-25T07:43:53;62.78;41.89;78.16;;
52872;Laerm;40124;52.198;9.902;2024-03-25T07:46:19;63.14;41.30;78.77;;
52872;Laerm;40124;52.198;9.902;2024-03-25T07:48:45;66.26;42.16;80.98;;
52872;Laerm;40124;52.198;9.902;2024-03-25T07:51:14;66.47;43.44;82.50;;
52872;Laerm;40124;52.198;9.902;2024-03-25T07:53:40;58.58;41.75;74.86;;
52872;Laerm;40124;52.198;9.902;2024-03-25T07:56:11;64.51;41.46;78.75;;
52872;Laerm;40124;52.198;9.902;2024-03-25T07:58:37;65.96;42.88;82.55;;
52872;Laerm;40124;52.198;9.902;2024-03-25T08:01:03;63.46;41.89;80.37;;
52872;Laerm;40124;52.198;9.902;2024-03-25T08:03:33;67.22;42.59;84.45;;
52872;Laerm;40124;52.198;9.902;2024-03-25T08:05:59;65.07;44.83;80.55;;
52872;Laerm;40124;52.198;9.902;2024-03-25T08:08:25;64.47;43.09;79.09;;
52872;Laerm;40124;52.198;9.902;2024-03-25T08:10:51;61.41;42.16;75.44;;
52872;Laerm;40124;52.198;9.902;2024-03-25T08:13:18;63.32;45.39;76.27;;
52872;Laerm;40124;52.198;9.902;2024-03-25T08:15:45;69.61;43.24;89.81;;
52872;Laerm;40124;52.198;9.902;2024-03-25T08:18:12;63.40;44.43;81.34;;
52872;Laerm;40124;52.198;9.902;2024-03-25T08:20:41;67.53;45.60;84.95;;
52872;Laerm;40124;52.198;9.902;2024-03-25T08:23:11;66.87;45.91;82.33;;
52872;Laerm;40124;52.198;9.902;2024-03-25T08:25:37;62.35;43.37;75.39;;
52872;Laerm;40124;52.198;9.902;2024-03-25T08:28:07;64.81;44.15;78.65;;
52872;Laerm;40124;52.198;9.902;2024-03-25T08:30:37;59.80;41.75;77.35;;
52872;Laerm;40124;52.198;9.902;2024-03-25T08:33:11;59.55;41.61;77.99;;
52872;Laerm;40124;52.198;9.902;2024-03-25T08:35:43;62.09;42.22;77.35;;
52872;Laerm;40124;52.198;9.902;2024-03-25T08:38:09;66.86;42.16;85.45;;
52872;Laerm;40124;52.198;9.902;2024-03-25T08:40:34;67.50;44.43;85.65;;
52872;Laerm;40124;52.198;9.902;2024-03-25T08:43:00;70.16;41.46;92.48;;
52872;Laerm;40124;52.198;9.902;2024-03-25T08:45:31;63.76;43.09;80.74;;
52872;Laerm;40124;52.198;9.902;2024-03-25T08:47:57;65.24;45.59;78.55;;
52872;Laerm;40124;52.198;9.902;2024-03-25T08:50:27;63.90;42.93;78.32;;
52872;Laerm;40124;52.198;9.902;2024-03-25T08:52:56;64.27;41.89;78.36;;
52872;Laerm;40124;52.198;9.902;2024-03-25T08:55:25;65.08;43.68;78.02;;
52872;Laerm;40124;52.198;9.902;2024-03-25T08:57:55;63.79;41.82;78.43;;
52872;Laerm;40124;52.198;9.902;2024-03-25T09:00:24;63.57;41.96;81.60;;
52872;Laerm;40124;52.198;9.902;2024-03-25T09:02:50;61.07;42.09;78.85;;
52872;Laerm;40124;52.198;9.902;2024-03-25T09:05:15;67.40;42.71;82.64;;
52872;Laerm;40124;52.198;9.902;2024-03-25T09:07:44;59.51;41.22;76.65;;
52872;Laerm;40124;52.198;9.902;2024-03-25T09:10:10;64.72;44.23;78.63;;
52872;Laerm;40124;52.198;9.902;2024-03-25T09:12:54;62.71;42.88;80.31;;
52872;Laerm;40124;52.198;9.902;2024-03-25T09:15:20;63.77;42.41;79.22;;
52872;Laerm;40124;52.198;9.902;2024-03-25T09:17:50;61.05;42.03;79.05;;
52872;Laerm;40124;52.198;9.902;2024-03-25T09:20:21;64.14;46.66;78.50;;
52872;Laerm;40124;52.198;9.902;2024-03-25T09:22:56;59.14;41.14;77.17;;
52872;Laerm;40124;52.198;9.902;2024-03-25T09:25:26;59.44;41.30;75.38;;
52872;Laerm;40124;52.198;9.902;2024-03-25T09:27:52;60.25;42.09;73.93;;
52872;Laerm;40124;52.198;9.902;2024-03-25T09:30:21;58.44;39.81;76.27;;
52872;Laerm;40124;52.198;9.902;2024-03-25T09:32:50;64.69;42.03;81.02;;
52872;Laerm;40124;52.198;9.902;2024-03-25T09:35:19;65.09;44.31;79.79;;
52872;Laerm;40124;52.198;9.902;2024-03-25T09:37:45;58.36;41.30;74.85;;
52872;Laerm;40124;52.198;9.902;2024-03-25T09:40:16;60.36;40.80;79.53;;
52872;Laerm;40124;52.198;9.902;2024-03-25T09:42:49;70.47;42.59;88.73;;
52872;Laerm;40124;52.198;9.902;2024-03-25T09:45:16;59.32;41.53;76.41;;
52872;Laerm;40124;52.198;9.902;2024-03-25T09:47:46;61.18;42.09;77.87;;
52872;Laerm;40124;52.198;9.902;2024-03-25T09:50:13;65.65;43.24;84.63;;
52872;Laerm;40124;52.198;9.902;2024-03-25T09:52:44;60.85;42.47;77.83;;
52872;Laerm;40124;52.198;9.902;2024-03-25T09:55:11;65.94;46.15;80.61;;
52872;Laerm;40124;52.198;9.902;2024-03-25T09:57:37;63.58;44.56;82.41;;
52872;Laerm;40124;52.198;9.902;2024-03-25T10:00:04;61.98;41.30;79.65;;
52872;Laerm;40124;52.198;9.902;2024-03-25T10:02:30;63.46;42.03;77.00;;
52872;Laerm;40124;52.198;9.902;2024-03-25T10:04:56;56.70;40.80;72.78;;
52872;Laerm;40124;52.198;9.902;2024-03-25T10:07:23;63.72;41.46;80.21;;
52872;Laerm;40124;52.198;9.902;2024-03-25T10:09:49;66.34;43.58;83.35;;
52872;Laerm;40124;52.198;9.902;2024-03-25T10:12:15;64.88;41.38;82.83;;
52872;Laerm;40124;52.198;9.902;2024-03-25T10:14:47;62.10;41.75;78.35;;
52872;Laerm;40124;52.198;9.902;2024-03-25T10:17:16;62.37;40.13;76.99;;
52872;Laerm;40124;52.198;9.902;2024-03-25T10:19:42;60.50;42.22;75.06;;
52872;Laerm;40124;52.198;9.902;2024-03-25T10:22:08;64.36;42.59;81.94;;
52872;Laerm;40124;52.198;9.902;2024-03-25T10:24:44;65.92;43.49;80.17;;
52872;Laerm;40124;52.198;9.902;2024-03-25T10:27:11;60.13;41.14;78.55;;
52872;Laerm;40124;52.198;9.902;2024-03-25T10:29:51;63.07;43.19;79.27;;
52872;Laerm;40124;52.198;9.902;2024-03-25T10:32:21;64.02;42.00;79.67;;
52872;Laerm;40124;52.198;9.902;2024-03-25T10:34:54;59.17;41.75;75.94;;
52872;Laerm;40124;52.198;9.902;2024-03-25T10:37:20;65.33;41.30;77.52;;
52872;Laerm;40124;52.198;9.902;2024-03-25T10:39:48;59.69;40.71;76.79;;
52872;Laerm;40124;52.198;9.902;2024-03-25T10:42:19;63.35;40.71;79.05;;
52872;Laerm;40124;52.198;9.902;2024-03-25T10:44:46;62.77;39.34;81.16;;
52872;Laerm;40124;52.198;9.902;2024-03-25T10:47:17;63.04;40.23;78.17;;
52872;Laerm;40124;52.198;9.902;2024-03-25T10:50:07;62.39;43.39;77.90;;
52872;Laerm;40124;52.198;9.902;2024-03-25T10:52:31;56.34;40.13;75.80;;
52872;Laerm;40124;52.198;9.902;2024-03-25T10:54:57;61.73;41.61;75.50;;
52872;Laerm;40124;52.198;9.902;2024-03-25T10:57:23;62.35;40.71;78.12;;
52872;Laerm;40124;52.198;9.902;2024-03-25T10:59:49;62.46;40.89;83.07;;
52872;Laerm;40124;52.198;9.902;2024-03-25T11:02:15;60.23;40.89;78.19;;
52872;Laerm;40124;52.198;9.902;2024-03-25T11:04:42;67.02;44.73;82.67;;
52872;Laerm;40124;52.198;9.902;2024-03-25T11:07:09;63.02;39.92;77.96;;
52872;Laerm;40124;52.198;9.902;2024-03-25T11:09:36;65.03;40.33;79.12;;
52872;Laerm;40124;52.198;9.902;2024-03-25T11:12:03;65.22;41.38;81.08;;
52872;Laerm;40124;52.198;9.902;2024-03-25T11:14:33;59.21;41.38;74.11;;
52872;Laerm;40124;52.198;9.902;2024-03-25T11:17:00;60.40;42.03;78.61;;
52872;Laerm;40124;52.198;9.902;2024-03-25T11:19:31;60.13;41.53;74.54;;
52872;Laerm;40124;52.198;9.902;2024-03-25T11:22:10;65.92;43.24;85.17;;
52872;Laerm;40124;52.198;9.902;2024-03-25T11:24:36;57.66;42.22;71.85;;
52872;Laerm;40124;52.198;9.902;2024-03-25T11:27:06;64.78;42.29;78.74;;
52872;Laerm;40124;52.198;9.902;2024-03-25T11:29:35;61.89;39.92;78.07;;
52872;Laerm;40124;52.198;9.902;2024-03-25T11:32:05;63.78;43.94;78.33;;
52872;Laerm;40124;52.198;9.902;2024-03-25T11:34:35;62.67;40.43;79.32;;
52872;Laerm;40124;52.198;9.902;2024-03-25T11:37:01;59.47;39.34;77.26;;
52872;Laerm;40124;52.198;9.902;2024-03-25T11:39:27;63.19;41.14;80.03;;
52872;Laerm;40124;52.198;9.902;2024-03-25T11:41:57;60.70;39.34;76.89;;
52872;Laerm;40124;52.198;9.902;2024-03-25T11:44:22;60.99;42.22;77.52;;
52872;Laerm;40124;52.198;9.902;2024-03-25T11:46:49;62.43;43.54;78.40;;
52872;Laerm;40124;52.198;9.902;2024-03-25T11:49:16;60.63;39.58;78.31;;
52872;Laerm;40124;52.198;9.902;2024-03-25T11:51:44;64.06;38.67;78.62;;
52872;Laerm;40124;52.198;9.902;2024-03-25T11:54:12;58.73;39.08;73.85;;
52872;Laerm;40124;52.198;9.902;2024-03-25T11:56:38;59.59;39.92;75.39;;
52872;Laerm;40124;52.198;9.902;2024-03-25T11:59:07;60.03;36.91;75.85;;
52872;Laerm;40124;52.198;9.902;2024-03-25T12:01:36;63.46;39.21;81.54;;
52872;Laerm;40124;52.198;9.902;2024-03-25T12:04:10;62.65;38.21;80.28;;
52872;Laerm;40124;52.198;9.902;2024-03-25T12:06:36;61.87;42.35;77.55;;
52872;Laerm;40124;52.198;9.902;2024-03-25T12:09:04;63.91;38.21;78.63;;
52872;Laerm;40124;52.198;9.902;2024-03-25T12:11:50;63.22;41.68;79.19;;
52872;Laerm;40124;52.198;9.902;2024-03-25T12:14:17;66.20;40.62;82.75;;
52872;Laerm;40124;52.198;9.902;2024-03-25T12:16:43;64.21;43.86;78.52;;
52872;Laerm;40124;52.198;9.902;2024-03-25T12:19:10;65.02;41.89;78.71;;
52872;Laerm;40124;52.198;9.902;2024-03-25T12:21:39;63.16;41.89;77.78;;
52872;Laerm;40124;52.198;9.902;2024-03-25T12:24:06;56.49;39.21;77.68;;
52872;Laerm;40124;52.198;9.902;2024-03-25T12:26:34;63.77;41.53;78.53;;
52872;Laerm;40124;52.198;9.902;2024-03-25T12:29:05;62.91;41.19;79.92;;
52872;Laerm;40124;52.198;9.902;2024-03-25T12:31:37;61.88;41.22;80.41;;
52872;Laerm;40124;52.198;9.902;2024-03-25T12:34:09;59.95;39.46;79.16;;
52872;Laerm;40124;52.198;9.902;2024-03-25T12:36:35;60.94;38.05;77.52;;
52872;Laerm;40124;52.198;9.902;2024-03-25T12:39:02;62.49;43.72;77.21;;
52872;Laerm;40124;52.198;9.902;2024-03-25T12:41:29;64.83;44.73;78.32;;
52872;Laerm;40124;52.198;9.902;2024-03-25T12:43:58;67.32;40.23;83.80;;
52872;Laerm;40124;52.198;9.902;2024-03-25T12:46:24;58.61;39.70;78.98;;
52872;Laerm;40124;52.198;9.902;2024-03-25T12:48:52;57.22;41.82;77.97;;
52872;Laerm;40124;52.198;9.902;2024-03-25T12:51:18;62.44;41.30;77.39;;
52872;Laerm;40124;52.198;9.902;2024-03-25T12:53:44;67.04;42.71;84.14;;
52872;Laerm;40124;52.198;9.902;2024-03-25T12:56:11;67.11;43.99;84.15;;
52872;Laerm;40124;52.198;9.902;2024-03-25T12:58:46;61.47;42.22;79.33;;
52872;Laerm;40124;52.198;9.902;2024-03-25T13:01:12;61.38;40.53;78.09;;
52872;Laerm;40124;52.198;9.902;2024-03-25T13:03:41;59.80;41.14;76.10;;
52872;Laerm;40124;52.198;9.902;2024-03-25T13:06:10;64.16;41.14;80.66;;
52872;Laerm;40124;52.198;9.902;2024-03-25T13:08:36;62.91;40.71;79.21;;
52872;Laerm;40124;52.198;9.902;2024-03-25T13:11:02;64.14;41.75;81.89;;
52872;Laerm;40124;52.198;9.902;2024-03-25T13:13:29;59.46;40.03;76.88;;
52872;Laerm;40124;52.198;9.902;2024-03-25T13:15:59;63.06;41.75;79.61;;
52872;Laerm;40124;52.198;9.902;2024-03-25T13:18:30;59.96;38.95;78.56;;
52872;Laerm;40124;52.198;9.902;2024-03-25T13:20:57;60.29;39.81;78.27;;
52872;Laerm;40124;52.198;9.902;2024-03-25T13:23:24;61.54;38.95;81.18;;
52872;Laerm;40124;52.198;9.902;2024-03-25T13:25:51;63.69;41.30;80.19;;
52872;Laerm;40124;52.198;9.902;2024-03-25T13:28:18;64.14;39.34;79.40;;
52872;Laerm;40124;52.198;9.902;2024-03-25T13:30:44;64.92;41.75;79.06;;
52872;Laerm;40124;52.198;9.902;2024-03-25T13:33:10;61.39;39.34;78.66;;
52872;Laerm;40124;52.198;9.902;2024-03-25T13:35:37;62.51;40.13;79.73;;
52872;Laerm;40124;52.198;9.902;2024-03-25T13:38:04;60.86;38.52;78.01;;
52872;Laerm;40124;52.198;9.902;2024-03-25T13:40:33;58.20;40.03;75.52;;
52872;Laerm;40124;52.198;9.902;2024-03-25T13:42:59;64.89;40.71;79.13;;
52872;Laerm;40124;52.198;9.902;2024-03-25T13:45:28;67.10;42.22;79.92;;
52872;Laerm;40124;52.198;9.902;2024-03-25T13:48:00;69.65;40.27;85.18;;
52872;Laerm;40124;52.198;9.902;2024-03-25T13:50:26;66.55;42.09;81.00;;